sensor_id;sensor_type;location;lat;lon;timestamp;P1;durP1;ratioP1;P2;durP2;ratioP2
7593;SDS011;3838;43.124;25.686;2023-11-19T00:01:05;36.55;;;35.25;;
7593;SDS011;3838;43.124;25.686;2023-11-19T00:03:31;38.13;;;36.72;;
7593;SDS011;3838;43.124;25.686;2023-11-19T00:05:58;36.85;;;35.53;;
7593;SDS011;3838;43.124;25.686;2023-11-19T00:08:24;36.97;;;35.63;;
7593;SDS011;3838;43.124;25.686;2023-11-19T00:10:50;36.95;;;35.60;;
7593;SDS011;3838;43.124;25.686;2023-11-19T00:13:16;36.20;;;34.90;;
7593;SDS011;3838;43.124;25.686;2023-11-19T00:15:41;35.25;;;33.97;;
7593;SDS011;3838;43.124;25.686;2023-11-19T00:18:07;36.00;;;34.70;;
7593;SDS011;3838;43.124;25.686;2023-11-19T00:20:32;36.13;;;34.83;;
7593;SDS011;3838;43.124;25.686;2023-11-19T00:22:58;36.42;;;35.10;;
7593;SDS011;3838;43.124;25.686;2023-11-19T00:25:23;35.63;;;34.33;;
7593;SDS011;3838;43.124;25.686;2023-11-19T00:27:50;36.50;;;35.10;;
7593;SDS011;3838;43.124;25.686;2023-11-19T00:30:18;34.88;;;33.63;;
7593;SDS011;3838;43.124;25.686;2023-11-19T00:32:44;35.80;;;34.53;;
7593;SDS011;3838;43.124;25.686;2023-11-19T00:35:10;34.97;;;33.72;;
7593;SDS011;3838;43.124;25.686;2023-11-19T00:37:36;34.35;;;33.10;;
7593;SDS011;3838;43.124;25.686;2023-11-19T00:40:01;34.22;;;33.00;;
7593;SDS011;3838;43.124;25.686;2023-11-19T00:42:30;34.83;;;33.53;;
7593;SDS011;3838;43.124;25.686;2023-11-19T00:44:56;32.58;;;31.42;;
7593;SDS011;3838;43.124;25.686;2023-11-19T00:47:23;33.70;;;32.50;;
7593;SDS011;3838;43.124;25.686;2023-11-19T00:49:48;33.72;;;32.50;;
7593;SDS011;3838;43.124;25.686;2023-11-19T00:52:14;32.75;;;31.58;;
7593;SDS011;3838;43.124;25.686;2023-11-19T00:54:40;34.20;;;32.97;;
7593;SDS011;3838;43.124;25.686;2023-11-19T00:57:06;33.13;;;31.95;;
7593;SDS011;3838;43.124;25.686;2023-11-19T00:59:31;32.80;;;31.60;;
7593;SDS011;3838;43.124;25.686;2023-11-19T01:01:57;31.50;;;30.40;;
7593;SDS011;3838;43.124;25.686;2023-11-19T01:04:24;31.70;;;30.58;;
7593;SDS011;3838;43.124;25.686;2023-11-19T01:06:49;31.23;;;30.13;;
7593;SDS011;3838;43.124;25.686;2023-11-19T01:09:15;31.85;;;30.75;;
7593;SDS011;3838;43.124;25.686;2023-11-19T01:11:40;30.25;;;29.17;;
7593;SDS011;3838;43.124;25.686;2023-11-19T01:14:06;31.40;;;30.30;;
7593;SDS011;3838;43.124;25.686;2023-11-19T01:16:50;30.27;;;29.23;;
7593;SDS011;3838;43.124;25.686;2023-11-19T01:19:15;30.50;;;29.40;;
7593;SDS011;3838;43.124;25.686;2023-11-19T01:21:41;30.55;;;29.45;;
7593;SDS011;3838;43.124;25.686;2023-11-19T01:24:06;31.17;;;30.08;;
7593;SDS011;3838;43.124;25.686;2023-11-19T01:26:34;31.80;;;30.67;;
7593;SDS011;3838;43.124;25.686;2023-11-19T01:29:00;30.48;;;29.38;;
7593;SDS011;3838;43.124;25.686;2023-11-19T01:31:26;28.70;;;27.70;;
7593;SDS011;3838;43.124;25.686;2023-11-19T01:33:51;29.90;;;28.85;;
7593;SDS011;3838;43.124;25.686;2023-11-19T01:36:17;30.55;;;29.45;;
7593;SDS011;3838;43.124;25.686;2023-11-19T01:38:42;30.33;;;29.25;;
7593;SDS011;3838;43.124;25.686;2023-11-19T01:41:08;31.02;;;29.92;;
7593;SDS011;3838;43.124;25.686;2023-11-19T01:46:04;29.98;;;28.95;;
7593;SDS011;3838;43.124;25.686;2023-11-19T01:48:33;29.73;;;28.67;;
7593;SDS011;3838;43.124;25.686;2023-11-19T01:51:01;29.48;;;28.45;;
7593;SDS011;3838;43.124;25.686;2023-11-19T01:53:28;29.48;;;28.48;;
7593;SDS011;3838;43.124;25.686;2023-11-19T01:55:55;29.70;;;28.70;;
7593;SDS011;3838;43.124;25.686;2023-11-19T01:58:22;30.88;;;29.77;;
7593;SDS011;3838;43.124;25.686;2023-11-19T02:00:48;28.50;;;27.52;;
7593;SDS011;3838;43.124;25.686;2023-11-19T02:03:14;29.80;;;28.77;;
7593;SDS011;3838;43.124;25.686;2023-11-19T02:05:39;29.65;;;28.63;;
7593;SDS011;3838;43.124;25.686;2023-11-19T02:08:05;29.17;;;28.17;;
7593;SDS011;3838;43.124;25.686;2023-11-19T02:10:30;30.20;;;29.15;;
7593;SDS011;3838;43.124;25.686;2023-11-19T02:12:57;29.38;;;28.38;;
7593;SDS011;3838;43.124;25.686;2023-11-19T02:15:23;28.88;;;27.88;;
7593;SDS011;3838;43.124;25.686;2023-11-19T02:17:50;29.05;;;28.05;;
7593;SDS011;3838;43.124;25.686;2023-11-19T02:20:16;30.13;;;29.08;;
7593;SDS011;3838;43.124;25.686;2023-11-19T02:22:41;30.15;;;29.08;;
7593;SDS011;3838;43.124;25.686;2023-11-19T02:25:07;30.45;;;29.40;;
7593;SDS011;3838;43.124;25.686;2023-11-19T02:28:01;28.98;;;27.98;;
7593;SDS011;3838;43.124;25.686;2023-11-19T02:30:29;27.90;;;26.95;;
7593;SDS011;3838;43.124;25.686;2023-11-19T02:32:55;29.80;;;28.75;;
7593;SDS011;3838;43.124;25.686;2023-11-19T02:35:26;28.25;;;27.27;;
7593;SDS011;3838;43.124;25.686;2023-11-19T02:37:51;29.05;;;28.05;;
7593;SDS011;3838;43.124;25.686;2023-11-19T02:40:17;29.88;;;28.85;;
7593;SDS011;3838;43.124;25.686;2023-11-19T02:42:43;29.15;;;28.15;;
7593;SDS011;3838;43.124;25.686;2023-11-19T02:45:09;29.67;;;28.65;;
7593;SDS011;3838;43.124;25.686;2023-11-19T02:47:39;29.40;;;28.38;;
7593;SDS011;3838;43.124;25.686;2023-11-19T02:50:09;29.02;;;28.02;;
7593;SDS011;3838;43.124;25.686;2023-11-19T02:52:41;28.17;;;27.23;;
7593;SDS011;3838;43.124;25.686;2023-11-19T02:55:07;28.88;;;27.88;;
7593;SDS011;3838;43.124;25.686;2023-11-19T02:57:37;27.67;;;26.73;;
7593;SDS011;3838;43.124;25.686;2023-11-19T03:00:16;29.17;;;28.17;;
7593;SDS011;3838;43.124;25.686;2023-11-19T03:02:46;29.27;;;28.25;;
7593;SDS011;3838;43.124;25.686;2023-11-19T03:05:13;28.30;;;27.33;;
7593;SDS011;3838;43.124;25.686;2023-11-19T03:07:40;28.92;;;27.92;;
7593;SDS011;3838;43.124;25.686;2023-11-19T03:10:09;29.40;;;28.40;;
7593;SDS011;3838;43.124;25.686;2023-11-19T03:12:38;28.75;;;27.75;;
7593;SDS011;3838;43.124;25.686;2023-11-19T03:15:07;28.20;;;27.25;;
7593;SDS011;3838;43.124;25.686;2023-11-19T03:17:35;28.30;;;27.35;;
7593;SDS011;3838;43.124;25.686;2023-11-19T03:20:08;29.10;;;28.10;;
7593;SDS011;3838;43.124;25.686;2023-11-19T03:22:38;29.30;;;28.27;;
7593;SDS011;3838;43.124;25.686;2023-11-19T03:25:04;28.70;;;27.73;;
7593;SDS011;3838;43.124;25.686;2023-11-19T03:27:29;27.00;;;26.10;;
7593;SDS011;3838;43.124;25.686;2023-11-19T03:29:55;28.42;;;27.45;;
7593;SDS011;3838;43.124;25.686;2023-11-19T03:32:20;28.15;;;27.20;;
7593;SDS011;3838;43.124;25.686;2023-11-19T03:34:46;29.23;;;28.23;;
7593;SDS011;3838;43.124;25.686;2023-11-19T03:37:11;27.33;;;26.42;;
7593;SDS011;3838;43.124;25.686;2023-11-19T03:39:37;28.23;;;27.23;;
7593;SDS011;3838;43.124;25.686;2023-11-19T03:42:03;27.98;;;27.02;;
7593;SDS011;3838;43.124;25.686;2023-11-19T03:44:29;27.23;;;26.33;;
7593;SDS011;3838;43.124;25.686;2023-11-19T03:46:54;27.92;;;27.00;;
7593;SDS011;3838;43.124;25.686;2023-11-19T03:49:19;27.58;;;26.67;;
7593;SDS011;3838;43.124;25.686;2023-11-19T03:51:45;27.98;;;27.00;;
7593;SDS011;3838;43.124;25.686;2023-11-19T03:54:10;29.27;;;28.27;;
7593;SDS011;3838;43.124;25.686;2023-11-19T03:56:36;28.45;;;27.50;;
7593;SDS011;3838;43.124;25.686;2023-11-19T03:59:02;30.27;;;29.25;;
7593;SDS011;3838;43.124;25.686;2023-11-19T04:01:28;28.20;;;27.25;;
7593;SDS011;3838;43.124;25.686;2023-11-19T04:03:53;29.45;;;28.45;;
7593;SDS011;3838;43.124;25.686;2023-11-19T04:06:20;27.95;;;27.02;;
7593;SDS011;3838;43.124;25.686;2023-11-19T04:08:46;27.20;;;26.30;;
7593;SDS011;3838;43.124;25.686;2023-11-19T04:11:11;28.75;;;27.75;;
7593;SDS011;3838;43.124;25.686;2023-11-19T04:13:37;27.20;;;26.27;;
7593;SDS011;3838;43.124;25.686;2023-11-19T04:16:02;26.00;;;25.13;;
7593;SDS011;3838;43.124;25.686;2023-11-19T04:18:28;27.17;;;26.27;;
7593;SDS011;3838;43.124;25.686;2023-11-19T04:20:53;28.42;;;27.45;;
7593;SDS011;3838;43.124;25.686;2023-11-19T04:23:19;29.00;;;28.00;;
7593;SDS011;3838;43.124;25.686;2023-11-19T04:25:44;27.65;;;26.73;;
7593;SDS011;3838;43.124;25.686;2023-11-19T04:28:09;27.40;;;26.50;;
7593;SDS011;3838;43.124;25.686;2023-11-19T04:30:35;29.08;;;28.08;;
7593;SDS011;3838;43.124;25.686;2023-11-19T04:33:02;27.83;;;26.90;;
7593;SDS011;3838;43.124;25.686;2023-11-19T04:35:28;26.90;;;26.00;;
7593;SDS011;3838;43.124;25.686;2023-11-19T04:37:53;27.08;;;26.17;;
7593;SDS011;3838;43.124;25.686;2023-11-19T04:40:19;26.77;;;25.88;;
7593;SDS011;3838;43.124;25.686;2023-11-19T04:42:47;25.90;;;25.02;;
7593;SDS011;3838;43.124;25.686;2023-11-19T04:45:13;26.10;;;25.20;;
7593;SDS011;3838;43.124;25.686;2023-11-19T04:47:38;26.50;;;25.60;;
7593;SDS011;3838;43.124;25.686;2023-11-19T04:50:04;26.67;;;25.77;;
7593;SDS011;3838;43.124;25.686;2023-11-19T04:52:30;27.67;;;26.75;;
7593;SDS011;3838;43.124;25.686;2023-11-19T04:54:55;27.13;;;26.23;;
7593;SDS011;3838;43.124;25.686;2023-11-19T04:57:20;25.92;;;25.05;;
7593;SDS011;3838;43.124;25.686;2023-11-19T04:59:46;28.38;;;27.38;;
7593;SDS011;3838;43.124;25.686;2023-11-19T05:02:11;26.58;;;25.67;;
7593;SDS011;3838;43.124;25.686;2023-11-19T05:04:37;27.15;;;26.25;;
7593;SDS011;3838;43.124;25.686;2023-11-19T05:07:09;25.67;;;24.83;;
7593;SDS011;3838;43.124;25.686;2023-11-19T05:09:34;27.20;;;26.30;;
7593;SDS011;3838;43.124;25.686;2023-11-19T05:12:00;26.55;;;25.65;;
7593;SDS011;3838;43.124;25.686;2023-11-19T05:14:26;28.10;;;27.15;;
7593;SDS011;3838;43.124;25.686;2023-11-19T05:16:52;27.98;;;27.05;;
7593;SDS011;3838;43.124;25.686;2023-11-19T05:19:18;26.75;;;25.85;;
7593;SDS011;3838;43.124;25.686;2023-11-19T05:21:43;26.33;;;25.45;;
7593;SDS011;3838;43.124;25.686;2023-11-19T05:24:09;26.90;;;26.00;;
7593;SDS011;3838;43.124;25.686;2023-11-19T05:26:34;27.58;;;26.67;;
7593;SDS011;3838;43.124;25.686;2023-11-19T05:29:00;28.52;;;27.58;;
7593;SDS011;3838;43.124;25.686;2023-11-19T05:31:25;29.45;;;28.45;;
7593;SDS011;3838;43.124;25.686;2023-11-19T05:33:51;30.27;;;29.23;;
7593;SDS011;3838;43.124;25.686;2023-11-19T05:36:17;28.13;;;27.15;;
7593;SDS011;3838;43.124;25.686;2023-11-19T05:38:42;25.90;;;25.00;;
7593;SDS011;3838;43.124;25.686;2023-11-19T05:41:09;24.85;;;24.05;;
7593;SDS011;3838;43.124;25.686;2023-11-19T05:43:35;24.30;;;23.50;;
7593;SDS011;3838;43.124;25.686;2023-11-19T05:46:00;24.38;;;23.58;;
7593;SDS011;3838;43.124;25.686;2023-11-19T05:48:26;23.42;;;22.63;;
7593;SDS011;3838;43.124;25.686;2023-11-19T05:50:52;24.17;;;23.38;;
7593;SDS011;3838;43.124;25.686;2023-11-19T05:53:19;23.67;;;22.90;;
7593;SDS011;3838;43.124;25.686;2023-11-19T05:55:44;23.63;;;22.83;;
7593;SDS011;3838;43.124;25.686;2023-11-19T05:58:19;23.70;;;22.90;;
7593;SDS011;3838;43.124;25.686;2023-11-19T06:00:47;24.23;;;23.35;;
7593;SDS011;3838;43.124;25.686;2023-11-19T06:03:13;22.17;;;21.48;;
7593;SDS011;3838;43.124;25.686;2023-11-19T06:05:38;23.15;;;22.35;;
7593;SDS011;3838;43.124;25.686;2023-11-19T06:08:04;22.40;;;21.70;;
7593;SDS011;3838;43.124;25.686;2023-11-19T06:10:29;22.90;;;22.10;;
7593;SDS011;3838;43.124;25.686;2023-11-19T06:12:59;23.08;;;22.27;;
7593;SDS011;3838;43.124;25.686;2023-11-19T06:15:28;21.95;;;21.23;;
7593;SDS011;3838;43.124;25.686;2023-11-19T06:17:53;24.75;;;23.90;;
7593;SDS011;3838;43.124;25.686;2023-11-19T06:20:20;22.75;;;22.00;;
7593;SDS011;3838;43.124;25.686;2023-11-19T06:22:45;24.50;;;23.65;;
7593;SDS011;3838;43.124;25.686;2023-11-19T06:25:11;23.08;;;22.30;;
7593;SDS011;3838;43.124;25.686;2023-11-19T06:27:40;23.15;;;22.38;;
7593;SDS011;3838;43.124;25.686;2023-11-19T06:30:06;23.95;;;23.13;;
7593;SDS011;3838;43.124;25.686;2023-11-19T06:32:32;23.80;;;23.00;;
7593;SDS011;3838;43.124;25.686;2023-11-19T06:34:57;22.35;;;21.65;;
7593;SDS011;3838;43.124;25.686;2023-11-19T06:37:23;23.42;;;22.63;;
7593;SDS011;3838;43.124;25.686;2023-11-19T06:39:48;23.45;;;22.65;;
7593;SDS011;3838;43.124;25.686;2023-11-19T06:44:58;23.02;;;22.27;;
7593;SDS011;3838;43.124;25.686;2023-11-19T06:47:27;22.35;;;21.65;;
7593;SDS011;3838;43.124;25.686;2023-11-19T06:49:53;22.85;;;22.13;;
7593;SDS011;3838;43.124;25.686;2023-11-19T06:52:19;23.30;;;22.50;;
7593;SDS011;3838;43.124;25.686;2023-11-19T06:54:45;23.48;;;22.70;;
7593;SDS011;3838;43.124;25.686;2023-11-19T06:57:11;23.10;;;22.30;;
7593;SDS011;3838;43.124;25.686;2023-11-19T06:59:37;22.60;;;21.90;;
7593;SDS011;3838;43.124;25.686;2023-11-19T07:02:03;22.73;;;22.00;;
7593;SDS011;3838;43.124;25.686;2023-11-19T07:04:29;22.85;;;22.10;;
7593;SDS011;3838;43.124;25.686;2023-11-19T07:06:55;22.92;;;22.15;;
7593;SDS011;3838;43.124;25.686;2023-11-19T07:09:21;23.13;;;22.33;;
7593;SDS011;3838;43.124;25.686;2023-11-19T07:11:46;22.38;;;21.65;;
7593;SDS011;3838;43.124;25.686;2023-11-19T07:14:11;23.33;;;22.52;;
7593;SDS011;3838;43.124;25.686;2023-11-19T07:16:37;21.98;;;21.27;;
7593;SDS011;3838;43.124;25.686;2023-11-19T07:19:04;22.55;;;21.85;;
7593;SDS011;3838;43.124;25.686;2023-11-19T07:21:33;22.73;;;22.02;;
7593;SDS011;3838;43.124;25.686;2023-11-19T07:23:58;22.55;;;21.85;;
7593;SDS011;3838;43.124;25.686;2023-11-19T07:26:24;22.83;;;22.10;;
7593;SDS011;3838;43.124;25.686;2023-11-19T07:28:50;23.25;;;22.50;;
7593;SDS011;3838;43.124;25.686;2023-11-19T07:31:16;24.00;;;23.20;;
7593;SDS011;3838;43.124;25.686;2023-11-19T07:33:43;23.08;;;22.33;;
7593;SDS011;3838;43.124;25.686;2023-11-19T07:36:09;21.88;;;21.17;;
7593;SDS011;3838;43.124;25.686;2023-11-19T07:38:35;22.42;;;21.73;;
7593;SDS011;3838;43.124;25.686;2023-11-19T07:41:01;23.02;;;22.27;;
7593;SDS011;3838;43.124;25.686;2023-11-19T07:43:26;22.40;;;21.70;;
7593;SDS011;3838;43.124;25.686;2023-11-19T07:45:52;22.50;;;21.80;;
7593;SDS011;3838;43.124;25.686;2023-11-19T07:48:17;22.50;;;21.75;;
7593;SDS011;3838;43.124;25.686;2023-11-19T07:50:48;21.73;;;21.02;;
7593;SDS011;3838;43.124;25.686;2023-11-19T07:53:15;21.90;;;21.20;;
7593;SDS011;3838;43.124;25.686;2023-11-19T07:55:41;24.00;;;23.20;;
7593;SDS011;3838;43.124;25.686;2023-11-19T07:58:07;22.75;;;22.00;;
7593;SDS011;3838;43.124;25.686;2023-11-19T08:00:32;23.23;;;22.48;;
7593;SDS011;3838;43.124;25.686;2023-11-19T08:02:57;21.88;;;21.17;;
7593;SDS011;3838;43.124;25.686;2023-11-19T08:05:23;22.33;;;21.63;;
7593;SDS011;3838;43.124;25.686;2023-11-19T08:07:49;22.92;;;22.20;;
7593;SDS011;3838;43.124;25.686;2023-11-19T08:10:15;23.38;;;22.63;;
7593;SDS011;3838;43.124;25.686;2023-11-19T08:12:41;22.85;;;22.13;;
7593;SDS011;3838;43.124;25.686;2023-11-19T08:15:06;22.65;;;21.90;;
7593;SDS011;3838;43.124;25.686;2023-11-19T08:17:32;22.85;;;22.05;;
7593;SDS011;3838;43.124;25.686;2023-11-19T08:19:57;22.80;;;22.08;;
7593;SDS011;3838;43.124;25.686;2023-11-19T08:22:25;22.15;;;21.45;;
7593;SDS011;3838;43.124;25.686;2023-11-19T08:24:50;22.08;;;21.38;;
7593;SDS011;3838;43.124;25.686;2023-11-19T08:27:16;21.88;;;21.17;;
7593;SDS011;3838;43.124;25.686;2023-11-19T08:29:41;22.50;;;21.80;;
7593;SDS011;3838;43.124;25.686;2023-11-19T08:32:07;21.85;;;21.15;;
7593;SDS011;3838;43.124;25.686;2023-11-19T08:34:32;22.25;;;21.55;;
7593;SDS011;3838;43.124;25.686;2023-11-19T08:36:57;22.60;;;21.90;;
7593;SDS011;3838;43.124;25.686;2023-11-19T08:39:23;22.95;;;22.23;;
7593;SDS011;3838;43.124;25.686;2023-11-19T08:41:49;22.25;;;21.55;;
7593;SDS011;3838;43.124;25.686;2023-11-19T08:44:15;21.98;;;21.27;;
7593;SDS011;3838;43.124;25.686;2023-11-19T08:46:49;22.73;;;22.02;;
7593;SDS011;3838;43.124;25.686;2023-11-19T08:49:15;22.55;;;21.83;;
7593;SDS011;3838;43.124;25.686;2023-11-19T08:51:40;23.23;;;22.48;;
7593;SDS011;3838;43.124;25.686;2023-11-19T08:54:06;23.00;;;22.27;;
7593;SDS011;3838;43.124;25.686;2023-11-19T08:56:32;22.40;;;21.70;;
7593;SDS011;3838;43.124;25.686;2023-11-19T08:58:59;22.02;;;21.33;;
7593;SDS011;3838;43.124;25.686;2023-11-19T09:01:25;22.80;;;22.10;;
7593;SDS011;3838;43.124;25.686;2023-11-19T09:03:50;22.02;;;21.33;;
7593;SDS011;3838;43.124;25.686;2023-11-19T09:06:16;23.60;;;22.80;;
7593;SDS011;3838;43.124;25.686;2023-11-19T09:08:42;23.00;;;22.25;;
7593;SDS011;3838;43.124;25.686;2023-11-19T09:11:07;21.95;;;21.25;;
7593;SDS011;3838;43.124;25.686;2023-11-19T09:13:34;22.30;;;21.60;;
7593;SDS011;3838;43.124;25.686;2023-11-19T09:16:00;22.85;;;22.15;;
7593;SDS011;3838;43.124;25.686;2023-11-19T09:18:28;23.35;;;22.55;;
7593;SDS011;3838;43.124;25.686;2023-11-19T09:20:54;23.08;;;22.35;;
7593;SDS011;3838;43.124;25.686;2023-11-19T09:23:19;22.75;;;22.00;;
7593;SDS011;3838;43.124;25.686;2023-11-19T09:25:45;23.05;;;22.33;;
7593;SDS011;3838;43.124;25.686;2023-11-19T09:28:10;22.52;;;21.83;;
7593;SDS011;3838;43.124;25.686;2023-11-19T09:30:36;24.80;;;23.90;;
7593;SDS011;3838;43.124;25.686;2023-11-19T09:33:01;23.30;;;22.55;;
7593;SDS011;3838;43.124;25.686;2023-11-19T09:35:27;22.75;;;22.05;;
7593;SDS011;3838;43.124;25.686;2023-11-19T09:37:52;22.60;;;21.90;;
7593;SDS011;3838;43.124;25.686;2023-11-19T09:40:18;22.83;;;22.05;;
7593;SDS011;3838;43.124;25.686;2023-11-19T09:42:44;22.45;;;21.75;;
7593;SDS011;3838;43.124;25.686;2023-11-19T09:45:16;22.55;;;21.85;;
7593;SDS011;3838;43.124;25.686;2023-11-19T09:47:44;23.60;;;22.80;;
7593;SDS011;3838;43.124;25.686;2023-11-19T09:50:13;22.88;;;22.15;;
7593;SDS011;3838;43.124;25.686;2023-11-19T09:52:41;22.67;;;21.95;;
7593;SDS011;3838;43.124;25.686;2023-11-19T09:55:07;22.70;;;21.98;;
7593;SDS011;3838;43.124;25.686;2023-11-19T09:57:33;23.45;;;22.67;;
7593;SDS011;3838;43.124;25.686;2023-11-19T10:00:02;22.40;;;21.70;;
7593;SDS011;3838;43.124;25.686;2023-11-19T10:02:31;22.23;;;21.52;;
7593;SDS011;3838;43.124;25.686;2023-11-19T10:04:59;22.17;;;21.48;;
7593;SDS011;3838;43.124;25.686;2023-11-19T10:07:28;20.95;;;20.27;;
7593;SDS011;3838;43.124;25.686;2023-11-19T10:09:53;22.52;;;21.80;;
7593;SDS011;3838;43.124;25.686;2023-11-19T10:12:19;22.17;;;21.38;;
7593;SDS011;3838;43.124;25.686;2023-11-19T10:14:44;22.25;;;21.55;;
7593;SDS011;3838;43.124;25.686;2023-11-19T10:17:12;22.52;;;21.80;;
7593;SDS011;3838;43.124;25.686;2023-11-19T10:19:39;22.15;;;21.45;;
7593;SDS011;3838;43.124;25.686;2023-11-19T10:22:06;21.08;;;20.38;;
7593;SDS011;3838;43.124;25.686;2023-11-19T10:24:32;21.50;;;20.80;;
7593;SDS011;3838;43.124;25.686;2023-11-19T10:26:59;22.30;;;21.60;;
7593;SDS011;3838;43.124;25.686;2023-11-19T10:29:25;23.42;;;22.65;;
7593;SDS011;3838;43.124;25.686;2023-11-19T10:31:57;22.80;;;22.08;;
7593;SDS011;3838;43.124;25.686;2023-11-19T10:34:24;22.52;;;21.77;;
7593;SDS011;3838;43.124;25.686;2023-11-19T10:36:51;23.50;;;22.70;;
7593;SDS011;3838;43.124;25.686;2023-11-19T10:39:16;21.55;;;20.85;;
7593;SDS011;3838;43.124;25.686;2023-11-19T10:41:43;21.73;;;21.02;;
7593;SDS011;3838;43.124;25.686;2023-11-19T10:44:09;22.10;;;21.40;;
7593;SDS011;3838;43.124;25.686;2023-11-19T10:49:07;22.08;;;21.38;;
7593;SDS011;3838;43.124;25.686;2023-11-19T10:51:33;22.10;;;21.40;;
7593;SDS011;3838;43.124;25.686;2023-11-19T10:54:05;22.55;;;21.85;;
7593;SDS011;3838;43.124;25.686;2023-11-19T10:56:32;22.58;;;21.85;;
7593;SDS011;3838;43.124;25.686;2023-11-19T10:59:01;22.83;;;22.02;;
7593;SDS011;3838;43.124;25.686;2023-11-19T11:01:32;21.95;;;21.25;;
7593;SDS011;3838;43.124;25.686;2023-11-19T11:04:03;22.10;;;21.40;;
7593;SDS011;3838;43.124;25.686;2023-11-19T11:06:29;22.35;;;21.65;;
7593;SDS011;3838;43.124;25.686;2023-11-19T11:08:55;22.33;;;21.63;;
7593;SDS011;3838;43.124;25.686;2023-11-19T11:11:22;22.25;;;21.55;;
7593;SDS011;3838;43.124;25.686;2023-11-19T11:13:48;21.92;;;21.23;;
7593;SDS011;3838;43.124;25.686;2023-11-19T11:16:15;20.83;;;20.17;;
7593;SDS011;3838;43.124;25.686;2023-11-19T11:18:44;21.85;;;21.15;;
7593;SDS011;3838;43.124;25.686;2023-11-19T11:21:15;21.75;;;21.05;;
7593;SDS011;3838;43.124;25.686;2023-11-19T11:26:53;21.35;;;20.65;;
7593;SDS011;3838;43.124;25.686;2023-11-19T11:32:33;21.17;;;20.48;;
7593;SDS011;3838;43.124;25.686;2023-11-19T11:38:04;20.88;;;20.17;;
7593;SDS011;3838;43.124;25.686;2023-11-19T11:40:31;21.13;;;20.42;;
7593;SDS011;3838;43.124;25.686;2023-11-19T11:42:57;20.92;;;20.25;;
7593;SDS011;3838;43.124;25.686;2023-11-19T11:45:36;21.98;;;21.27;;
7593;SDS011;3838;43.124;25.686;2023-11-19T11:48:09;21.75;;;21.05;;
7593;SDS011;3838;43.124;25.686;2023-11-19T11:53:37;21.20;;;20.50;;
7593;SDS011;3838;43.124;25.686;2023-11-19T11:56:02;21.70;;;21.00;;
7593;SDS011;3838;43.124;25.686;2023-11-19T11:58:29;21.88;;;21.17;;
7593;SDS011;3838;43.124;25.686;2023-11-19T12:01:00;21.15;;;20.48;;
7593;SDS011;3838;43.124;25.686;2023-11-19T12:03:28;21.77;;;21.08;;
7593;SDS011;3838;43.124;25.686;2023-11-19T12:05:55;22.20;;;21.50;;
7593;SDS011;3838;43.124;25.686;2023-11-19T12:08:24;21.73;;;21.02;;
7593;SDS011;3838;43.124;25.686;2023-11-19T12:10:51;21.58;;;20.88;;
7593;SDS011;3838;43.124;25.686;2023-11-19T12:13:20;22.13;;;21.42;;
7593;SDS011;3838;43.124;25.686;2023-11-19T12:18:27;20.67;;;20.08;;
7593;SDS011;3838;43.124;25.686;2023-11-19T12:20:54;21.98;;;21.17;;
7593;SDS011;3838;43.124;25.686;2023-11-19T12:23:21;21.02;;;20.33;;
7593;SDS011;3838;43.124;25.686;2023-11-19T12:25:47;21.02;;;20.38;;
7593;SDS011;3838;43.124;25.686;2023-11-19T12:28:12;21.42;;;20.58;;
7593;SDS011;3838;43.124;25.686;2023-11-19T12:30:39;22.40;;;21.60;;
7593;SDS011;3838;43.124;25.686;2023-11-19T12:33:10;21.95;;;21.13;;
7593;SDS011;3838;43.124;25.686;2023-11-19T12:35:40;21.70;;;21.00;;
7593;SDS011;3838;43.124;25.686;2023-11-19T12:38:06;21.63;;;20.83;;
7593;SDS011;3838;43.124;25.686;2023-11-19T12:40:31;21.60;;;20.90;;
7593;SDS011;3838;43.124;25.686;2023-11-19T12:42:57;22.42;;;21.73;;
7593;SDS011;3838;43.124;25.686;2023-11-19T12:45:24;22.40;;;21.52;;
7593;SDS011;3838;43.124;25.686;2023-11-19T12:47:49;21.52;;;20.83;;
7593;SDS011;3838;43.124;25.686;2023-11-19T12:50:17;22.02;;;21.33;;
7593;SDS011;3838;43.124;25.686;2023-11-19T12:52:54;22.45;;;21.75;;
7593;SDS011;3838;43.124;25.686;2023-11-19T12:55:24;21.17;;;20.52;;
7593;SDS011;3838;43.124;25.686;2023-11-19T12:57:51;21.50;;;20.80;;
7593;SDS011;3838;43.124;25.686;2023-11-19T13:00:20;21.58;;;20.88;;
7593;SDS011;3838;43.124;25.686;2023-11-19T13:02:47;21.00;;;20.35;;
7593;SDS011;3838;43.124;25.686;2023-11-19T13:08:05;21.90;;;21.10;;
7593;SDS011;3838;43.124;25.686;2023-11-19T13:10:33;19.73;;;19.13;;
7593;SDS011;3838;43.124;25.686;2023-11-19T13:13:19;21.05;;;20.35;;
7593;SDS011;3838;43.124;25.686;2023-11-19T13:15:45;21.52;;;20.83;;
7593;SDS011;3838;43.124;25.686;2023-11-19T13:18:10;20.95;;;20.25;;
7593;SDS011;3838;43.124;25.686;2023-11-19T13:20:36;21.35;;;20.65;;
7593;SDS011;3838;43.124;25.686;2023-11-19T13:23:02;21.17;;;20.45;;
7593;SDS011;3838;43.124;25.686;2023-11-19T13:25:29;22.10;;;21.40;;
7593;SDS011;3838;43.124;25.686;2023-11-19T13:27:55;21.23;;;20.52;;
7593;SDS011;3838;43.124;25.686;2023-11-19T13:30:21;22.15;;;21.45;;
7593;SDS011;3838;43.124;25.686;2023-11-19T13:32:48;22.38;;;21.67;;
7593;SDS011;3838;43.124;25.686;2023-11-19T13:35:13;21.92;;;21.13;;
7593;SDS011;3838;43.124;25.686;2023-11-19T13:37:39;20.23;;;19.63;;
7593;SDS011;3838;43.124;25.686;2023-11-19T13:40:06;22.58;;;21.85;;
7593;SDS011;3838;43.124;25.686;2023-11-19T13:42:32;22.38;;;21.67;;
7593;SDS011;3838;43.124;25.686;2023-11-19T13:44:58;20.90;;;20.25;;
7593;SDS011;3838;43.124;25.686;2023-11-19T13:47:23;21.85;;;21.15;;
7593;SDS011;3838;43.124;25.686;2023-11-19T13:49:49;22.10;;;21.40;;
7593;SDS011;3838;43.124;25.686;2023-11-19T13:52:14;21.55;;;20.85;;
7593;SDS011;3838;43.124;25.686;2023-11-19T13:54:40;21.77;;;21.08;;
7593;SDS011;3838;43.124;25.686;2023-11-19T13:57:06;22.17;;;21.48;;
7593;SDS011;3838;43.124;25.686;2023-11-19T13:59:31;21.90;;;21.20;;
7593;SDS011;3838;43.124;25.686;2023-11-19T14:01:59;20.40;;;19.80;;
7593;SDS011;3838;43.124;25.686;2023-11-19T14:04:25;21.65;;;20.95;;
7593;SDS011;3838;43.124;25.686;2023-11-19T14:06:51;21.27;;;20.58;;
7593;SDS011;3838;43.124;25.686;2023-11-19T14:09:16;22.02;;;21.33;;
7593;SDS011;3838;43.124;25.686;2023-11-19T14:11:42;21.30;;;20.60;;
7593;SDS011;3838;43.124;25.686;2023-11-19T14:14:08;22.40;;;21.67;;
7593;SDS011;3838;43.124;25.686;2023-11-19T14:16:34;21.15;;;20.48;;
7593;SDS011;3838;43.124;25.686;2023-11-19T14:18:59;21.23;;;20.55;;
7593;SDS011;3838;43.124;25.686;2023-11-19T14:21:25;22.23;;;21.52;;
7593;SDS011;3838;43.124;25.686;2023-11-19T14:23:51;22.58;;;21.88;;
7593;SDS011;3838;43.124;25.686;2023-11-19T14:26:17;22.38;;;21.65;;
7593;SDS011;3838;43.124;25.686;2023-11-19T14:28:43;22.27;;;21.58;;
7593;SDS011;3838;43.124;25.686;2023-11-19T14:31:08;21.55;;;20.88;;
7593;SDS011;3838;43.124;25.686;2023-11-19T14:33:34;21.45;;;20.75;;
7593;SDS011;3838;43.124;25.686;2023-11-19T14:36:01;21.98;;;21.27;;
7593;SDS011;3838;43.124;25.686;2023-11-19T14:38:26;21.73;;;20.95;;
7593;SDS011;3838;43.124;25.686;2023-11-19T14:40:52;22.75;;;21.95;;
7593;SDS011;3838;43.124;25.686;2023-11-19T14:43:17;22.58;;;21.80;;
7593;SDS011;3838;43.124;25.686;2023-11-19T14:45:43;22.65;;;21.88;;
7593;SDS011;3838;43.124;25.686;2023-11-19T14:48:08;22.73;;;21.98;;
7593;SDS011;3838;43.124;25.686;2023-11-19T14:50:35;21.35;;;20.65;;
7593;SDS011;3838;43.124;25.686;2023-11-19T14:53:00;21.42;;;20.73;;
7593;SDS011;3838;43.124;25.686;2023-11-19T14:55:26;21.80;;;21.10;;